createdAt,value
2018-12-20T13:50:10.424Z,96997.13
2018-12-20T13:52:40.603Z,96997.89
2018-12-20T13:55:09.911Z,96997.00
2018-12-20T13:57:39.373Z,96996.56
2018-12-20T14:00:13.530Z,96997.00
2018-12-20T14:02:43.069Z,97001.18
2018-12-20T14:05:12.388Z,97004.50
2018-12-20T14:07:41.784Z,97008.22
2018-12-20T14:10:12.891Z,97013.63
2018-12-20T14:12:42.981Z,97006.92
2018-12-20T14:15:12.492Z,97013.46
2018-12-20T14:17:41.993Z,97012.50
2018-12-20T14:20:15.675Z,97016.58
2018-12-20T14:22:45.131Z,97017.23
2018-12-20T14:25:14.521Z,97013.75
2018-12-20T14:27:43.779Z,97018.63
2018-12-20T14:30:13.125Z,97021.14
2018-12-20T14:32:42.444Z,97010.53
2018-12-20T14:35:11.821Z,97020.94
2018-12-20T14:37:41.167Z,97015.79
2018-12-20T14:40:15.429Z,97020.75
2018-12-20T14:42:51.022Z,97019.75
2018-12-20T14:45:20.687Z,97023.02
2018-12-20T14:47:50.818Z,97024.64
2018-12-20T14:50:20.203Z,97022.88
2018-12-20T14:52:50.162Z,97017.73
2018-12-20T14:55:20.258Z,97021.87
2018-12-20T14:57:50.429Z,97024.21
2018-12-20T15:00:20.936Z,97027.38
2018-12-20T15:02:50.385Z,97026.51
2018-12-20T15:05:19.734Z,97031.50
2018-12-20T15:07:49.035Z,97034.85
2018-12-20T15:10:20.214Z,97032.22
2018-12-20T15:12:49.664Z,97038.91
2018-12-20T15:15:20.823Z,97040.56
2018-12-20T15:17:50.206Z,97045.56
2018-12-20T15:20:21.403Z,97048.79
2018-12-20T15:22:52.267Z,97050.33
2018-12-20T15:25:24.995Z,97040.06
2018-12-20T15:27:54.299Z,97042.39
2018-12-20T15:30:24.482Z,97045.61
2018-12-20T15:32:53.971Z,97054.70
2018-12-20T15:35:23.397Z,97053.64
2018-12-20T15:37:52.773Z,97054.30
2018-12-20T15:40:23.919Z,97047.49
2018-12-20T15:42:58.410Z,97053.31
2018-12-20T15:45:28.632Z,97054.48
2018-12-20T15:47:59.813Z,97059.87
2018-12-20T15:51:00.244Z,97059.44
2018-12-20T15:53:31.086Z,97063.13
2018-12-20T15:56:02.538Z,97055.89
2018-12-20T15:58:32.150Z,97063.36
2018-12-20T16:01:01.579Z,97061.59
2018-12-20T16:03:31.082Z,97070.34
2018-12-20T16:06:01.163Z,97074.94
2018-12-20T16:08:30.635Z,97085.30
2018-12-20T16:10:59.942Z,97075.20
2018-12-20T16:13:29.310Z,97079.33
2018-12-20T16:15:58.690Z,97075.44
2018-12-20T16:18:29.800Z,97078.33
2018-12-20T16:20:59.089Z,97081.59
2018-12-20T16:23:28.632Z,97083.10
2018-12-20T16:25:59.681Z,97086.27
2018-12-20T16:28:29.732Z,97091.03
2018-12-20T16:30:59.049Z,97088.73
2018-12-20T16:33:28.837Z,97092.23
2018-12-20T16:36:00.175Z,97086.16
2018-12-20T16:38:29.433Z,97081.00
2018-12-20T16:40:58.976Z,97086.85
2018-12-20T16:43:30.388Z,97086.75
2018-12-20T16:46:00.010Z,97083.20
2018-12-20T16:48:29.983Z,97089.86
2018-12-20T16:50:59.297Z,97094.41
2018-12-20T16:53:29.098Z,97085.52
2018-12-20T16:55:59.260Z,97082.88
2018-12-20T16:58:30.409Z,97083.70
2018-12-20T17:01:00.325Z,97082.45
2018-12-20T17:03:29.645Z,97079.49
2018-12-20T17:06:00.243Z,97074.81
2018-12-20T17:08:30.565Z,97082.69
2018-12-20T17:10:59.928Z,97082.22
2018-12-20T17:13:31.190Z,97086.58
2018-12-20T17:16:00.526Z,97104.73
2018-12-20T17:18:30.610Z,97098.34
2018-12-20T17:21:01.536Z,97095.50
2018-12-20T17:23:35.634Z,97092.52
2018-12-20T17:26:03.003Z,97092.52
2018-12-20T17:28:33.120Z,97092.41
2018-12-20T17:31:03.367Z,97098.12
2018-12-20T17:33:32.766Z,97103.09
2018-12-20T17:36:02.133Z,97105.45
2018-12-20T17:38:31.444Z,97099.05
2018-12-20T17:41:00.801Z,97100.64
2018-12-20T17:43:30.893Z,97095.08
2018-12-20T17:46:01.086Z,97093.34
2018-12-20T17:48:30.539Z,97094.03
2018-12-20T17:51:00.634Z,97094.84
2018-12-20T17:53:31.117Z,97092.67
2018-12-20T17:56:01.271Z,97094.73
2018-12-20T17:58:30.802Z,97093.83
2018-12-20T18:01:01.109Z,97092.09
2018-12-20T18:03:31.249Z,97092.91
2018-12-20T18:06:03.088Z,97096.20
2018-12-20T18:08:33.215Z,97100.34
2018-12-20T18:11:02.599Z,97110.72
2018-12-20T18:13:31.938Z,97112.70
2018-12-20T18:16:01.399Z,97116.31
2018-12-20T18:18:30.740Z,97117.42
2018-12-20T18:21:00.396Z,97115.62
2018-12-20T18:23:30.005Z,97126.78
2018-12-20T18:26:00.074Z,97128.03
2018-12-20T18:28:30.403Z,97120.51
2018-12-20T18:31:00.151Z,97131.41
2018-12-20T18:33:30.141Z,97137.30
2018-12-20T18:36:00.153Z,97135.56
2018-12-20T18:38:30.203Z,97141.16
2018-12-20T18:41:00.358Z,97138.31
2018-12-20T18:43:30.224Z,97145.17
2018-12-20T18:46:01.937Z,97145.28
2018-12-20T18:48:31.251Z,97146.20
2018-12-20T18:51:00.686Z,97146.30
2018-12-20T18:53:30.507Z,97145.97
2018-12-20T18:56:01.247Z,97169.00
2018-12-20T18:58:30.580Z,97154.08
2018-12-20T19:01:01.799Z,97149.16
2018-12-20T19:03:31.229Z,97148.38
2018-12-20T19:06:00.592Z,97145.92
2018-12-20T19:08:30.826Z,97156.02
2018-12-20T19:11:00.646Z,97159.83
2018-12-20T19:13:31.817Z,97157.71
2018-12-20T19:18:36.990Z,97161.14
2018-12-20T19:21:06.494Z,97160.36
2018-12-20T19:23:38.293Z,97151.09
2018-12-20T19:26:09.765Z,97152.74
2018-12-20T19:28:40.069Z,97153.61
2018-12-20T19:33:53.552Z,97157.84
2018-12-20T19:36:24.820Z,97157.03
2018-12-20T19:38:55.244Z,97158.73
2018-12-20T19:41:24.723Z,97157.03
2018-12-20T19:43:54.330Z,97154.47
2018-12-20T19:46:24.648Z,97159.44
2018-12-20T19:48:54.020Z,97165.25
2018-12-20T19:51:24.285Z,97163.44
2018-12-20T19:53:53.768Z,97167.55
2018-12-20T19:56:23.184Z,97165.70
2018-12-20T19:58:53.395Z,97176.42
2018-12-20T20:01:22.752Z,97178.83
2018-12-20T20:03:52.179Z,97172.02
2018-12-20T20:06:21.612Z,97173.56
2018-12-20T20:08:52.846Z,97175.09
2018-12-20T20:11:22.250Z,97174.13
2018-12-20T20:13:51.598Z,97170.25
2018-12-20T20:16:21.697Z,97164.76
2018-12-20T20:18:51.063Z,97172.98
2018-12-20T20:21:22.634Z,97160.86
2018-12-20T20:23:52.055Z,97173.55
2018-12-20T20:26:23.120Z,97175.91
2018-12-20T20:28:53.784Z,97177.45
2018-12-20T20:31:23.105Z,97173.95
2018-12-20T20:33:52.509Z,97181.37
2018-12-20T20:36:26.169Z,97177.08
2018-12-20T20:39:01.922Z,97173.73
2018-12-20T20:41:29.470Z,97180.34
2018-12-20T20:43:58.944Z,97182.84
2018-12-20T20:46:29.000Z,97188.64
2018-12-20T20:49:01.191Z,97186.02
2018-12-20T21:10:03.023Z,97211.54
2018-12-20T21:12:32.575Z,97213.21
2018-12-20T21:15:01.991Z,97217.03
2018-12-20T21:17:33.312Z,97212.10
2018-12-20T21:20:02.705Z,97219.82
2018-12-20T21:22:32.196Z,97217.52
2018-12-20T21:25:03.801Z,97218.94
2018-12-20T21:27:33.191Z,97213.00
2018-12-20T21:30:03.339Z,97213.42
2018-12-20T21:32:33.196Z,97210.77
2018-12-20T21:35:02.547Z,97215.45
2018-12-20T21:37:32.250Z,97216.97
2018-12-20T21:40:03.037Z,97220.39
2018-12-20T21:42:32.324Z,97216.31
2018-12-20T21:45:02.602Z,97218.02
2018-12-20T21:47:32.310Z,97214.73
2018-12-20T21:50:03.141Z,97225.63
2018-12-20T21:52:33.506Z,97222.25
2018-12-20T21:55:02.911Z,97225.53
2018-12-20T21:57:33.512Z,97224.76
2018-12-20T22:00:03.795Z,97223.95
2018-12-20T22:02:33.225Z,97227.33
2018-12-20T22:05:04.377Z,97235.23
2018-12-20T22:07:33.774Z,97228.96
2018-12-20T22:10:07.034Z,97235.55
2018-12-20T22:12:36.602Z,97243.88
2018-12-20T22:15:06.327Z,97255.59
2018-12-20T22:17:36.635Z,97255.75
2018-12-20T22:20:07.079Z,97251.52
2018-12-20T22:22:37.164Z,97248.23
2018-12-20T22:25:07.579Z,97258.31
2018-12-20T22:27:37.935Z,97258.05
2018-12-20T22:30:09.241Z,97250.86
2018-12-20T22:32:38.613Z,97260.42
2018-12-20T22:35:08.107Z,97257.20
2018-12-20T22:37:37.663Z,97259.77
2018-12-20T22:40:08.142Z,97253.56
2018-12-20T22:42:38.311Z,97253.24
2018-12-20T22:45:09.060Z,97257.61
2018-12-20T22:47:38.416Z,97250.20
2018-12-20T22:50:09.800Z,97250.20
2018-12-20T22:52:39.459Z,97246.12
2018-12-20T22:55:08.919Z,97242.36
2018-12-20T22:57:38.289Z,97241.11
2018-12-20T23:00:09.969Z,97236.09
2018-12-20T23:02:39.407Z,97236.16
2018-12-20T23:05:08.837Z,97231.69
2018-12-20T23:07:38.154Z,97235.56
2018-12-20T23:10:08.093Z,97233.66
2018-12-20T23:12:38.185Z,97237.53
2018-12-20T23:15:07.531Z,97236.88
2018-12-20T23:17:37.628Z,97238.13
2018-12-20T23:20:12.255Z,97236.16
2018-12-20T23:22:41.741Z,97239.05
2018-12-20T23:25:13.869Z,97235.63
2018-12-20T23:27:43.914Z,97233.00
2018-12-20T23:30:13.285Z,97234.10
2018-12-20T23:32:42.746Z,97236.43
2018-12-20T23:35:12.047Z,97237.95
2018-12-20T23:37:41.453Z,97236.70
2018-12-20T23:40:12.365Z,97241.71
2018-12-20T23:42:44.352Z,97234.58
2018-12-20T23:45:14.374Z,97228.70
2018-12-20T23:47:43.715Z,97235.45
2018-12-20T23:50:13.022Z,97235.23
2018-12-20T23:52:42.491Z,97230.04
2018-12-20T23:55:11.776Z,97225.30
2018-12-20T23:57:41.723Z,97230.57
